createdAt,value
2017-12-14T00:01:39.187Z,3.78
2017-12-14T00:04:06.712Z,3.49
2017-12-14T00:06:34.235Z,3.55
2017-12-14T00:09:01.759Z,3.38
2017-12-14T00:11:29.277Z,3.34
2017-12-14T00:13:56.840Z,3.34
2017-12-14T00:16:24.353Z,3.25
2017-12-14T00:18:51.860Z,3.21
2017-12-14T00:21:19.397Z,3.21
2017-12-14T00:23:46.899Z,3.14
2017-12-14T00:26:14.457Z,3.12
2017-12-14T00:28:41.980Z,3.02
2017-12-14T00:31:09.495Z,3.01
2017-12-14T00:33:37.072Z,2.98
2017-12-14T00:36:04.583Z,2.92
2017-12-14T00:38:32.101Z,2.95
2017-12-14T00:40:59.641Z,2.93
2017-12-14T00:43:27.164Z,2.86
2017-12-14T00:45:54.662Z,2.83
2017-12-14T00:48:22.230Z,2.80
2017-12-14T00:50:49.748Z,2.76
2017-12-14T00:53:17.276Z,2.73
2017-12-14T00:55:44.849Z,2.81
2017-12-14T00:58:12.378Z,2.68
2017-12-14T01:00:39.914Z,2.65
2017-12-14T01:03:07.498Z,2.63
2017-12-14T01:05:35.013Z,2.48
2017-12-14T01:08:02.531Z,2.61
2017-12-14T01:10:30.102Z,2.60
2017-12-14T01:12:57.626Z,2.61
2017-12-14T01:15:25.150Z,2.54
2017-12-14T01:17:52.689Z,2.56
2017-12-14T01:20:20.187Z,2.74
2017-12-14T01:22:47.726Z,2.72
2017-12-14T01:25:15.256Z,2.96
2017-12-14T01:27:42.808Z,2.81
2017-12-14T01:30:10.336Z,2.87
2017-12-14T01:32:37.850Z,3.01
2017-12-14T01:35:05.392Z,3.07
2017-12-14T01:37:32.905Z,3.00
2017-12-14T01:40:00.479Z,3.06
2017-12-14T01:42:28.010Z,2.98
2017-12-14T01:44:55.520Z,3.10
2017-12-14T01:47:23.085Z,3.20
2017-12-14T01:49:50.597Z,3.25
2017-12-14T01:52:18.114Z,3.34
2017-12-14T01:54:45.781Z,3.35
2017-12-14T01:57:13.296Z,3.20
2017-12-14T01:59:40.814Z,3.36
2017-12-14T02:02:08.360Z,3.23
2017-12-14T02:04:35.873Z,3.24
2017-12-14T02:07:03.384Z,3.14
2017-12-14T02:09:30.953Z,3.15
2017-12-14T02:11:58.473Z,3.15
2017-12-14T02:14:25.988Z,3.30
2017-12-14T02:16:53.520Z,3.15
2017-12-14T02:19:21.089Z,3.03
2017-12-14T02:21:48.634Z,3.14
2017-12-14T02:24:16.143Z,3.42
2017-12-14T02:26:43.721Z,3.46
2017-12-14T02:29:11.227Z,3.36
2017-12-14T02:31:38.736Z,3.35
2017-12-14T02:34:06.302Z,3.36
2017-12-14T02:36:33.823Z,3.44
2017-12-14T02:39:01.332Z,3.49
2017-12-14T02:41:28.891Z,3.69
2017-12-14T02:43:56.570Z,3.53
2017-12-14T02:46:24.097Z,3.54
2017-12-14T02:48:51.671Z,3.36
2017-12-14T02:51:19.210Z,3.20
2017-12-14T02:53:46.728Z,3.36
2017-12-14T02:56:14.308Z,3.24
2017-12-14T02:58:41.828Z,3.38
2017-12-14T03:01:09.345Z,3.32
2017-12-14T03:03:37.011Z,3.20
2017-12-14T03:06:04.542Z,3.37
2017-12-14T03:08:32.145Z,3.28
2017-12-14T03:10:59.709Z,3.26
2017-12-14T03:13:27.263Z,3.51
2017-12-14T03:15:54.782Z,3.51
2017-12-14T03:18:22.295Z,3.44
2017-12-14T03:20:49.847Z,3.25
2017-12-14T03:23:17.360Z,3.15
2017-12-14T03:25:44.869Z,3.30
2017-12-14T03:28:12.432Z,3.31
2017-12-14T03:30:39.951Z,3.35
2017-12-14T03:33:07.474Z,3.19
2017-12-14T03:35:35.039Z,3.29
2017-12-14T03:38:02.601Z,3.25
2017-12-14T03:40:30.114Z,3.28
2017-12-14T03:42:57.634Z,3.20
2017-12-14T03:45:25.203Z,3.26
2017-12-14T03:47:52.709Z,3.18
2017-12-14T03:50:20.249Z,3.34
2017-12-14T03:52:47.814Z,3.35
2017-12-14T03:55:15.320Z,3.25
2017-12-14T03:57:42.956Z,3.10
2017-12-14T04:00:10.483Z,3.28
2017-12-14T04:02:37.994Z,3.29
2017-12-14T04:05:05.574Z,3.46
2017-12-14T04:07:33.084Z,3.28
2017-12-14T04:10:00.616Z,3.35
2017-12-14T04:12:28.180Z,3.30
2017-12-14T04:14:55.726Z,3.35
2017-12-14T04:17:23.281Z,3.30
2017-12-14T04:19:50.830Z,3.48
2017-12-14T04:22:18.363Z,3.57
2017-12-14T04:24:45.942Z,3.36
2017-12-14T04:27:13.480Z,3.32
2017-12-14T04:29:41.110Z,3.67
2017-12-14T04:32:08.658Z,3.42
2017-12-14T04:34:36.201Z,3.39
2017-12-14T04:37:03.757Z,3.41
2017-12-14T04:39:31.345Z,3.45
2017-12-14T04:41:58.891Z,3.65
2017-12-14T04:44:26.437Z,3.40
2017-12-14T04:46:54.032Z,3.20
2017-12-14T04:49:21.586Z,3.26
2017-12-14T04:51:49.234Z,3.28
2017-12-14T04:54:16.828Z,3.19
2017-12-14T04:56:44.365Z,3.01
2017-12-14T04:59:11.923Z,3.05
2017-12-14T05:01:39.505Z,3.04
2017-12-14T05:04:07.021Z,3.05
2017-12-14T05:06:34.548Z,2.87
2017-12-14T05:09:02.127Z,2.79
2017-12-14T05:11:29.676Z,2.62
2017-12-14T05:13:57.198Z,2.44
2017-12-14T05:16:24.791Z,2.19
2017-12-14T05:18:52.350Z,2.26
2017-12-14T05:21:19.894Z,2.19
2017-12-14T05:23:47.483Z,2.23
2017-12-14T05:26:15.030Z,2.17
2017-12-14T05:28:42.579Z,2.26
2017-12-14T05:31:10.118Z,2.20
2017-12-14T05:33:37.698Z,2.31
2017-12-14T05:36:05.232Z,2.26
2017-12-14T05:38:32.775Z,2.25
2017-12-14T05:41:00.353Z,2.09
2017-12-14T05:43:27.902Z,1.98
2017-12-14T05:45:55.440Z,1.94
2017-12-14T05:48:23.205Z,1.62
2017-12-14T05:50:50.765Z,1.73
2017-12-14T05:53:18.392Z,1.42
2017-12-14T05:55:45.979Z,1.30
2017-12-14T05:58:13.514Z,1.32
2017-12-14T06:00:41.041Z,1.01
2017-12-14T06:03:08.616Z,1.24
2017-12-14T06:05:36.159Z,0.96
2017-12-14T06:08:03.730Z,0.85
2017-12-14T06:10:31.248Z,0.89
2017-12-14T06:12:58.816Z,0.73
2017-12-14T06:15:26.348Z,0.68
2017-12-14T06:17:53.908Z,0.69
2017-12-14T06:20:21.445Z,0.79
2017-12-14T06:22:49.067Z,0.78
2017-12-14T06:25:16.605Z,0.81
2017-12-14T06:27:44.155Z,0.69
2017-12-14T06:30:11.736Z,0.73
2017-12-14T06:32:39.275Z,0.67
2017-12-14T06:35:06.840Z,0.82
2017-12-14T06:37:34.389Z,0.91
2017-12-14T06:40:01.974Z,0.89
2017-12-14T06:42:29.509Z,1.13
2017-12-14T06:44:57.033Z,1.13
2017-12-14T06:47:24.594Z,0.97
2017-12-14T06:49:52.156Z,1.07
2017-12-14T06:52:19.660Z,1.01
2017-12-14T06:54:47.216Z,0.93
2017-12-14T06:57:14.739Z,1.03
2017-12-14T06:59:42.306Z,1.20
2017-12-14T07:02:09.836Z,0.94
2017-12-14T07:04:37.357Z,0.82
2017-12-14T07:07:04.908Z,0.93
2017-12-14T07:09:32.502Z,1.24
2017-12-14T07:12:00.048Z,0.98
2017-12-14T07:14:27.569Z,1.22
2017-12-14T07:16:55.152Z,1.18
2017-12-14T07:19:22.673Z,1.40
2017-12-14T07:21:50.202Z,1.47
2017-12-14T07:24:17.764Z,1.40
2017-12-14T07:26:45.284Z,1.32
2017-12-14T07:29:12.825Z,1.55
2017-12-14T07:31:40.385Z,1.30
2017-12-14T07:34:07.975Z,1.33
2017-12-14T07:36:35.522Z,1.36
2017-12-14T07:39:03.113Z,1.42
2017-12-14T07:41:30.648Z,1.36
2017-12-14T07:44:10.153Z,1.41
2017-12-14T07:46:49.628Z,1.44
2017-12-14T07:49:24.591Z,1.48
2017-12-14T07:51:52.145Z,1.40
2017-12-14T07:54:19.700Z,1.32
2017-12-14T07:56:47.316Z,1.35
2017-12-14T07:59:14.854Z,1.49
2017-12-14T08:01:42.397Z,1.43
2017-12-14T08:04:09.989Z,1.58
2017-12-14T08:06:37.540Z,1.33
2017-12-14T08:09:05.117Z,1.46
2017-12-14T08:11:32.716Z,1.32
2017-12-14T08:14:00.245Z,1.36
2017-12-14T08:16:27.776Z,1.46
2017-12-14T08:18:55.358Z,1.47
2017-12-14T08:21:22.884Z,1.43
2017-12-14T08:23:50.432Z,1.69
2017-12-14T08:26:18.040Z,1.78
2017-12-14T08:28:45.589Z,1.81
2017-12-14T08:31:13.123Z,1.78
2017-12-14T08:33:40.679Z,1.74
2017-12-14T08:36:08.208Z,1.90
2017-12-14T08:38:35.804Z,2.04
2017-12-14T08:41:03.338Z,2.15
2017-12-14T08:43:30.902Z,2.17
2017-12-14T08:45:58.488Z,2.15
2017-12-14T08:48:26.031Z,2.27
2017-12-14T08:50:53.563Z,2.38
2017-12-14T08:53:21.152Z,2.27
2017-12-14T08:55:48.686Z,2.44
2017-12-14T08:58:16.200Z,2.50
2017-12-14T09:00:43.760Z,2.56
2017-12-14T09:03:12.116Z,2.41
2017-12-14T09:05:39.631Z,2.54
2017-12-14T09:08:07.152Z,2.72
2017-12-14T09:10:34.733Z,2.66
2017-12-14T09:13:02.286Z,2.44
2017-12-14T09:15:29.827Z,2.35
2017-12-14T09:17:57.385Z,2.43
2017-12-14T09:20:24.899Z,2.46
2017-12-14T09:22:52.461Z,2.11
2017-12-14T09:25:19.975Z,2.23
2017-12-14T09:27:47.526Z,2.28
2017-12-14T09:30:15.056Z,2.07
2017-12-14T09:32:42.588Z,1.89
2017-12-14T09:35:10.130Z,2.10
2017-12-14T09:37:37.661Z,2.08
2017-12-14T09:40:05.204Z,2.07
2017-12-14T09:42:32.715Z,2.37
2017-12-14T09:45:00.310Z,2.12
2017-12-14T09:47:27.847Z,2.17
2017-12-14T09:49:55.376Z,1.91
2017-12-14T09:52:22.944Z,1.98
2017-12-14T09:54:50.475Z,2.14
2017-12-14T09:57:18.026Z,2.19
2017-12-14T09:59:45.629Z,1.92
2017-12-14T10:02:13.143Z,2.03
2017-12-14T10:04:40.652Z,2.26
2017-12-14T10:07:08.248Z,1.86
2017-12-14T10:09:35.786Z,1.98
2017-12-14T10:12:03.309Z,2.23
2017-12-14T10:14:30.927Z,2.16
2017-12-14T10:16:58.455Z,1.87
2017-12-14T10:19:25.979Z,1.96
2017-12-14T10:21:53.570Z,2.25
2017-12-14T10:24:21.089Z,2.47
2017-12-14T10:26:48.632Z,2.30
2017-12-14T10:29:16.257Z,2.45
2017-12-14T10:31:43.785Z,2.92
2017-12-14T10:34:11.322Z,2.80
2017-12-14T10:36:38.903Z,2.44
2017-12-14T10:39:06.417Z,2.47
2017-12-14T10:41:33.945Z,2.85
2017-12-14T10:44:01.517Z,2.70
2017-12-14T10:46:29.046Z,3.03
2017-12-14T10:48:56.671Z,3.08
2017-12-14T10:51:24.222Z,3.54
2017-12-14T10:53:51.775Z,3.26
2017-12-14T10:56:19.346Z,3.29
2017-12-14T10:58:46.919Z,2.96
2017-12-14T11:01:19.855Z,2.92
2017-12-14T11:03:47.430Z,2.82
2017-12-14T11:06:14.964Z,2.75
2017-12-14T11:08:42.492Z,2.99
2017-12-14T11:11:10.064Z,3.05
2017-12-14T11:13:37.597Z,3.41
2017-12-14T11:16:05.136Z,3.63
2017-12-14T11:18:32.745Z,3.67
2017-12-14T11:21:00.279Z,3.56
2017-12-14T11:23:27.803Z,3.76
2017-12-14T11:25:55.399Z,3.50
2017-12-14T11:28:22.929Z,3.97
2017-12-14T11:30:50.456Z,3.86
2017-12-14T11:33:18.004Z,3.68
2017-12-14T11:35:45.560Z,3.95
2017-12-14T11:38:13.095Z,4.17
2017-12-14T11:40:40.711Z,4.35
2017-12-14T11:43:08.220Z,3.95
2017-12-14T11:45:35.744Z,3.32
2017-12-14T11:48:03.333Z,3.79
2017-12-14T11:50:30.847Z,3.55
2017-12-14T11:52:58.361Z,3.80
2017-12-14T11:55:25.920Z,3.54
2017-12-14T11:57:53.514Z,3.70
2017-12-14T12:00:21.704Z,3.75
2017-12-14T12:02:49.298Z,3.79
2017-12-14T12:05:16.841Z,3.79
2017-12-14T12:07:44.362Z,3.76
2017-12-14T12:10:11.940Z,3.99
2017-12-14T12:12:39.487Z,3.84
2017-12-14T12:15:07.016Z,4.24
2017-12-14T12:17:34.592Z,4.45
2017-12-14T12:20:02.127Z,4.52
2017-12-14T12:22:29.669Z,4.38
2017-12-14T12:24:57.244Z,4.07
2017-12-14T12:27:24.748Z,3.80
2017-12-14T12:29:52.257Z,3.80
2017-12-14T12:32:19.860Z,3.75
2017-12-14T12:34:47.392Z,3.79
2017-12-14T12:37:14.939Z,3.84
2017-12-14T12:39:42.464Z,3.66
2017-12-14T12:42:10.054Z,3.34
2017-12-14T12:44:37.583Z,3.53
2017-12-14T12:47:05.104Z,3.73
2017-12-14T12:49:32.668Z,3.98
2017-12-14T12:52:00.212Z,3.63
2017-12-14T12:54:27.719Z,3.70
2017-12-14T12:56:55.310Z,3.69
2017-12-14T12:59:22.841Z,3.53
2017-12-14T13:01:50.370Z,3.74
2017-12-14T13:04:17.939Z,3.79
2017-12-14T13:06:45.460Z,3.71
2017-12-14T13:09:12.992Z,3.70
2017-12-14T13:11:40.557Z,3.68
2017-12-14T13:14:08.080Z,3.63
2017-12-14T13:16:35.606Z,4.20
2017-12-14T13:19:03.176Z,4.08
2017-12-14T13:21:30.700Z,3.96
2017-12-14T13:23:58.245Z,3.72
2017-12-14T13:26:25.794Z,3.88
2017-12-14T13:28:53.345Z,3.55
2017-12-14T13:31:20.843Z,3.83
2017-12-14T13:33:48.429Z,3.47
2017-12-14T13:36:16.019Z,3.39
2017-12-14T13:38:43.536Z,3.20
2017-12-14T13:41:11.107Z,3.23
2017-12-14T13:43:38.629Z,3.35
2017-12-14T13:46:06.149Z,3.03
2017-12-14T13:48:33.729Z,2.95
2017-12-14T13:51:01.257Z,3.05
2017-12-14T13:53:28.790Z,3.07
2017-12-14T13:55:56.321Z,3.00
2017-12-14T13:58:23.845Z,3.15
2017-12-14T14:00:51.405Z,3.33
2017-12-14T14:03:18.927Z,3.15
2017-12-14T14:05:46.473Z,3.32
2017-12-14T14:08:13.991Z,3.27
2017-12-14T14:10:41.543Z,3.29
2017-12-14T14:13:09.056Z,3.31
2017-12-14T14:15:36.569Z,3.26
2017-12-14T14:18:04.146Z,3.38
2017-12-14T14:20:31.683Z,3.27
2017-12-14T14:22:59.188Z,3.08
2017-12-14T14:25:26.752Z,2.85
2017-12-14T14:27:54.264Z,3.01
2017-12-14T14:30:21.788Z,3.09
2017-12-14T14:32:49.347Z,2.73
2017-12-14T14:35:16.848Z,2.75
2017-12-14T14:37:44.353Z,2.74
2017-12-14T14:40:11.925Z,2.79
2017-12-14T14:42:39.464Z,2.76
2017-12-14T14:45:06.986Z,2.89
2017-12-14T14:47:34.556Z,3.10
2017-12-14T14:50:02.072Z,2.96
2017-12-14T14:52:29.575Z,3.02
2017-12-14T14:54:57.136Z,3.02
2017-12-14T14:57:24.747Z,2.90
2017-12-14T14:59:52.259Z,2.73
2017-12-14T15:02:19.871Z,2.85
2017-12-14T15:04:47.352Z,2.77
2017-12-14T15:07:14.847Z,2.70
2017-12-14T15:09:42.385Z,2.71
2017-12-14T15:12:09.912Z,3.05
2017-12-14T15:14:37.416Z,2.80
2017-12-14T15:17:04.964Z,2.77
2017-12-14T15:19:32.595Z,2.84
2017-12-14T15:22:00.104Z,2.85
2017-12-14T15:24:27.716Z,2.74
2017-12-14T15:26:55.228Z,2.67
2017-12-14T15:29:22.742Z,2.64
2017-12-14T15:31:50.301Z,2.53
2017-12-14T15:34:17.808Z,2.71
2017-12-14T15:36:45.366Z,2.61
2017-12-14T15:39:12.868Z,2.88
2017-12-14T15:41:40.387Z,2.73
2017-12-14T15:44:07.937Z,2.60
2017-12-14T15:46:35.451Z,2.58
2017-12-14T15:49:02.966Z,2.49
2017-12-14T15:51:30.537Z,2.52
2017-12-14T15:53:58.054Z,2.47
2017-12-14T15:56:25.561Z,2.70
2017-12-14T15:58:53.132Z,2.75
2017-12-14T16:01:20.645Z,2.77
2017-12-14T16:03:48.147Z,2.76
2017-12-14T16:06:15.685Z,3.00
2017-12-14T16:08:43.268Z,2.93
2017-12-14T16:11:10.771Z,2.84
2017-12-14T16:13:38.277Z,2.86
2017-12-14T16:16:05.840Z,2.98
2017-12-14T16:18:33.376Z,3.08
2017-12-14T16:21:00.884Z,3.28
2017-12-14T16:23:28.452Z,3.06
2017-12-14T16:25:55.972Z,3.17
2017-12-14T16:28:23.493Z,3.21
2017-12-14T16:30:51.069Z,2.95
2017-12-14T16:33:18.583Z,3.05
2017-12-14T16:35:46.113Z,3.20
2017-12-14T16:38:13.648Z,3.17
2017-12-14T16:40:41.180Z,3.24
2017-12-14T16:43:08.691Z,3.11
2017-12-14T16:45:36.264Z,3.17
2017-12-14T16:48:03.810Z,3.24
2017-12-14T16:50:31.315Z,3.28
2017-12-14T16:52:58.876Z,3.23
2017-12-14T16:55:26.399Z,3.16
2017-12-14T16:57:53.915Z,3.10
2017-12-14T17:00:21.468Z,3.11
2017-12-14T17:02:49.028Z,3.07
2017-12-14T17:05:16.613Z,3.00
2017-12-14T17:07:44.133Z,3.06
2017-12-14T17:10:11.640Z,2.94
2017-12-14T17:12:39.312Z,2.87
2017-12-14T17:15:06.825Z,2.86
2017-12-14T17:17:34.344Z,2.89
2017-12-14T17:20:01.930Z,3.01
2017-12-14T17:22:29.481Z,2.92
2017-12-14T17:24:56.985Z,2.98
2017-12-14T17:27:24.552Z,3.01
2017-12-14T17:29:52.069Z,2.97
2017-12-14T17:32:19.580Z,2.91
2017-12-14T17:34:47.204Z,2.77
2017-12-14T17:37:14.730Z,2.84
2017-12-14T17:39:42.314Z,2.67
2017-12-14T17:42:09.856Z,2.74
2017-12-14T17:44:37.371Z,2.58
2017-12-14T17:47:04.935Z,2.49
2017-12-14T17:49:32.457Z,2.62
2017-12-14T17:51:59.976Z,2.54
2017-12-14T17:54:27.597Z,2.74
2017-12-14T17:56:55.112Z,2.64
2017-12-14T17:59:22.633Z,2.49
2017-12-14T18:01:50.181Z,2.57
2017-12-14T18:04:17.709Z,2.77
2017-12-14T18:06:45.276Z,2.91
2017-12-14T18:09:12.813Z,3.13
2017-12-14T18:11:40.320Z,3.21
2017-12-14T18:14:07.925Z,2.92
2017-12-14T18:16:35.445Z,3.00
2017-12-14T18:19:02.965Z,3.06
2017-12-14T18:21:30.518Z,3.09
2017-12-14T18:23:58.037Z,2.97
2017-12-14T18:26:25.569Z,3.05
2017-12-14T18:28:53.098Z,3.03
2017-12-14T18:31:20.693Z,3.13
2017-12-14T18:33:48.237Z,3.27
2017-12-14T18:36:15.750Z,3.16
2017-12-14T18:38:43.316Z,3.17
2017-12-14T18:41:10.849Z,3.22
2017-12-14T18:43:38.374Z,2.98
2017-12-14T18:46:05.936Z,2.80
2017-12-14T18:48:33.667Z,2.75
2017-12-14T18:51:01.236Z,2.63
2017-12-14T18:53:28.787Z,2.42
2017-12-14T18:55:56.363Z,2.59
2017-12-14T18:58:23.898Z,2.56
2017-12-14T19:00:51.421Z,2.72
2017-12-14T19:03:18.992Z,2.65
2017-12-14T19:05:46.566Z,2.61
2017-12-14T19:08:14.226Z,2.47
2017-12-14T19:10:41.752Z,2.57
2017-12-14T19:13:09.289Z,2.83
2017-12-14T19:15:36.856Z,2.87
2017-12-14T19:18:04.407Z,2.75
2017-12-14T19:20:31.951Z,3.16
2017-12-14T19:22:59.488Z,3.21
2017-12-14T19:25:27.072Z,3.25
2017-12-14T19:27:54.622Z,3.11
2017-12-14T19:30:22.186Z,3.06
2017-12-14T19:32:49.711Z,3.17
2017-12-14T19:35:17.295Z,3.06
2017-12-14T19:37:44.822Z,3.13
2017-12-14T19:40:12.341Z,3.11
2017-12-14T19:42:39.895Z,3.36
2017-12-14T19:45:07.412Z,3.20
2017-12-14T19:47:34.993Z,3.38
2017-12-14T19:50:02.561Z,3.08
2017-12-14T19:52:30.154Z,2.87
2017-12-14T19:54:57.668Z,3.16
2017-12-14T19:57:25.184Z,3.09
2017-12-14T19:59:52.752Z,3.04
2017-12-14T20:02:20.273Z,3.07
2017-12-14T20:04:47.801Z,2.82
2017-12-14T20:07:15.382Z,2.79
2017-12-14T20:09:42.909Z,2.89
2017-12-14T20:12:10.432Z,2.75
2017-12-14T20:14:37.991Z,2.87
2017-12-14T20:17:05.523Z,2.64
2017-12-14T20:19:33.050Z,2.71
2017-12-14T20:22:00.656Z,2.61
2017-12-14T20:24:28.185Z,2.60
2017-12-14T20:26:55.721Z,2.69
2017-12-14T20:29:23.288Z,2.50
2017-12-14T20:31:50.808Z,2.60
2017-12-14T20:34:18.381Z,2.41
2017-12-14T20:36:45.911Z,2.19
2017-12-14T20:39:13.447Z,2.08
2017-12-14T20:41:40.989Z,2.15
2017-12-14T20:44:08.653Z,2.15
2017-12-14T20:46:36.200Z,2.10
2017-12-14T20:49:03.757Z,2.12
2017-12-14T20:51:31.344Z,2.10
2017-12-14T20:53:58.871Z,2.03
2017-12-14T20:56:26.418Z,2.08
2017-12-14T20:58:54.054Z,2.04
2017-12-14T21:01:21.586Z,2.20
2017-12-14T21:03:49.161Z,2.08
2017-12-14T21:06:16.689Z,2.03
2017-12-14T21:08:44.276Z,1.99
2017-12-14T21:11:11.789Z,1.95
2017-12-14T21:13:39.292Z,1.83
2017-12-14T21:16:07.309Z,1.89
2017-12-14T21:18:34.847Z,1.85
2017-12-14T21:21:02.364Z,1.83
2017-12-14T21:23:29.900Z,1.84
2017-12-14T21:25:57.425Z,1.75
2017-12-14T21:28:24.992Z,1.92
2017-12-14T21:30:52.503Z,1.98
2017-12-14T21:33:20.046Z,2.19
2017-12-14T21:35:47.636Z,2.23
2017-12-14T21:38:15.210Z,2.21
2017-12-14T21:40:42.724Z,2.41
2017-12-14T21:43:10.287Z,2.39
2017-12-14T21:45:37.787Z,2.59
2017-12-14T21:48:05.310Z,2.56
2017-12-14T21:50:33.744Z,2.65
2017-12-14T21:53:01.318Z,2.72
2017-12-14T21:55:28.846Z,2.82
2017-12-14T21:57:56.368Z,2.62
2017-12-14T22:00:23.970Z,2.72
2017-12-14T22:02:51.504Z,3.01
2017-12-14T22:05:19.021Z,2.88
2017-12-14T22:07:46.592Z,2.75
2017-12-14T22:10:14.108Z,2.74
2017-12-14T22:12:41.611Z,2.77
2017-12-14T22:15:09.160Z,2.81
2017-12-14T22:17:36.738Z,3.04
2017-12-14T22:20:04.255Z,2.81
2017-12-14T22:22:31.773Z,3.01
2017-12-14T22:24:59.337Z,2.95
2017-12-14T22:27:26.922Z,2.81
2017-12-14T22:29:54.492Z,2.99
2017-12-14T22:32:22.005Z,3.01
2017-12-14T22:34:49.515Z,2.92
2017-12-14T22:37:17.053Z,2.87
2017-12-14T22:39:44.629Z,2.98
2017-12-14T22:42:12.144Z,2.93
2017-12-14T22:44:39.651Z,3.05
2017-12-14T22:47:07.188Z,2.97
2017-12-14T22:49:34.728Z,3.09
2017-12-14T22:52:02.236Z,2.87
2017-12-14T22:54:29.803Z,2.90
2017-12-14T22:56:57.312Z,2.80
2017-12-14T22:59:24.842Z,2.97
2017-12-14T23:01:52.502Z,2.98
2017-12-14T23:04:19.986Z,3.05
2017-12-14T23:06:47.501Z,3.06
2017-12-14T23:09:15.066Z,2.85
2017-12-14T23:11:42.612Z,2.82
2017-12-14T23:14:10.167Z,2.85
2017-12-14T23:16:37.693Z,2.96
2017-12-14T23:19:05.252Z,3.00
2017-12-14T23:21:32.760Z,2.97
2017-12-14T23:24:00.264Z,3.03
2017-12-14T23:26:27.853Z,3.01
2017-12-14T23:28:55.375Z,2.98
2017-12-14T23:31:22.945Z,2.97
2017-12-14T23:33:50.458Z,2.98
2017-12-14T23:36:17.968Z,3.06
2017-12-14T23:38:45.527Z,3.10
2017-12-14T23:41:13.106Z,2.97
2017-12-14T23:43:40.619Z,3.00
2017-12-14T23:46:08.137Z,3.16
2017-12-14T23:48:35.667Z,2.93
2017-12-14T23:51:03.185Z,2.90
2017-12-14T23:53:30.735Z,2.92
2017-12-14T23:55:58.240Z,2.97
2017-12-14T23:58:25.760Z,3.17
